sensor_id;sensor_type;location;lat;lon;timestamp;temperature;humidity
12438;DHT22;6283;51.330;12.374;2023-11-19T00:02:10;6.70;99.90
12438;DHT22;6283;51.330;12.374;2023-11-19T00:04:39;6.90;99.90
12438;DHT22;6283;51.330;12.374;2023-11-19T00:07:05;6.80;99.90
12438;DHT22;6283;51.330;12.374;2023-11-19T00:09:33;6.50;99.90
12438;DHT22;6283;51.330;12.374;2023-11-19T00:12:00;6.60;99.90
12438;DHT22;6283;51.330;12.374;2023-11-19T00:14:26;6.70;99.90
12438;DHT22;6283;51.330;12.374;2023-11-19T00:16:51;6.90;99.90
12438;DHT22;6283;51.330;12.374;2023-11-19T00:19:17;6.60;99.90
12438;DHT22;6283;51.330;12.374;2023-11-19T00:21:43;6.80;99.90
12438;DHT22;6283;51.330;12.374;2023-11-19T00:24:09;6.50;99.90
12438;DHT22;6283;51.330;12.374;2023-11-19T00:26:34;6.60;99.90
12438;DHT22;6283;51.330;12.374;2023-11-19T00:29:00;6.40;1.00
12438;DHT22;6283;51.330;12.374;2023-11-19T00:31:26;6.40;1.00
12438;DHT22;6283;51.330;12.374;2023-11-19T00:33:53;6.70;1.00
12438;DHT22;6283;51.330;12.374;2023-11-19T00:36:19;6.50;1.00
12438;DHT22;6283;51.330;12.374;2023-11-19T00:38:44;6.60;63.10
12438;DHT22;6283;51.330;12.374;2023-11-19T00:41:10;6.50;99.90
12438;DHT22;6283;51.330;12.374;2023-11-19T00:43:36;6.40;99.90
12438;DHT22;6283;51.330;12.374;2023-11-19T00:46:02;6.30;99.90
12438;DHT22;6283;51.330;12.374;2023-11-19T00:48:28;6.30;1.00
12438;DHT22;6283;51.330;12.374;2023-11-19T00:50:54;6.30;1.00
12438;DHT22;6283;51.330;12.374;2023-11-19T00:53:20;6.60;1.00
12438;DHT22;6283;51.330;12.374;2023-11-19T00:55:45;6.40;1.00
12438;DHT22;6283;51.330;12.374;2023-11-19T00:58:11;6.30;1.00
12438;DHT22;6283;51.330;12.374;2023-11-19T01:00:36;6.20;1.00
12438;DHT22;6283;51.330;12.374;2023-11-19T01:03:02;6.50;1.00
12438;DHT22;6283;51.330;12.374;2023-11-19T01:05:27;6.40;29.10
12438;DHT22;6283;51.330;12.374;2023-11-19T01:07:53;6.20;1.00
12438;DHT22;6283;51.330;12.374;2023-11-19T01:10:20;6.50;20.00
12438;DHT22;6283;51.330;12.374;2023-11-19T01:12:46;6.30;1.00
12438;DHT22;6283;51.330;12.374;2023-11-19T01:15:11;6.20;1.00
12438;DHT22;6283;51.330;12.374;2023-11-19T01:17:38;6.40;25.30
12438;DHT22;6283;51.330;12.374;2023-11-19T01:20:04;6.40;1.00
12438;DHT22;6283;51.330;12.374;2023-11-19T01:22:32;6.20;1.00
12438;DHT22;6283;51.330;12.374;2023-11-19T01:24:57;6.50;1.00
12438;DHT22;6283;51.330;12.374;2023-11-19T01:27:24;6.20;1.00
12438;DHT22;6283;51.330;12.374;2023-11-19T01:29:50;6.60;1.00
12438;DHT22;6283;51.330;12.374;2023-11-19T01:32:16;6.40;1.00
12438;DHT22;6283;51.330;12.374;2023-11-19T01:34:41;6.30;1.00
12438;DHT22;6283;51.330;12.374;2023-11-19T01:37:07;6.40;1.00
12438;DHT22;6283;51.330;12.374;2023-11-19T01:39:35;6.30;1.00
12438;DHT22;6283;51.330;12.374;2023-11-19T01:42:01;6.60;1.00
12438;DHT22;6283;51.330;12.374;2023-11-19T01:44:26;6.20;1.00
12438;DHT22;6283;51.330;12.374;2023-11-19T01:46:52;6.20;1.00
12438;DHT22;6283;51.330;12.374;2023-11-19T01:49:19;6.60;1.00
12438;DHT22;6283;51.330;12.374;2023-11-19T01:51:45;6.30;1.00
12438;DHT22;6283;51.330;12.374;2023-11-19T01:54:12;6.60;99.90
12438;DHT22;6283;51.330;12.374;2023-11-19T01:56:40;6.40;99.90
12438;DHT22;6283;51.330;12.374;2023-11-19T01:59:07;6.40;99.90
12438;DHT22;6283;51.330;12.374;2023-11-19T02:01:35;6.30;99.90
12438;DHT22;6283;51.330;12.374;2023-11-19T02:04:05;6.30;99.90
12438;DHT22;6283;51.330;12.374;2023-11-19T02:06:33;6.40;99.90
12438;DHT22;6283;51.330;12.374;2023-11-19T02:08:59;6.50;99.90
12438;DHT22;6283;51.330;12.374;2023-11-19T02:11:26;6.30;99.90
12438;DHT22;6283;51.330;12.374;2023-11-19T02:13:57;6.50;99.90
12438;DHT22;6283;51.330;12.374;2023-11-19T02:16:23;6.50;99.90
12438;DHT22;6283;51.330;12.374;2023-11-19T02:18:48;6.40;99.90
12438;DHT22;6283;51.330;12.374;2023-11-19T02:21:14;6.50;99.90
12438;DHT22;6283;51.330;12.374;2023-11-19T02:23:40;6.50;1.00
12438;DHT22;6283;51.330;12.374;2023-11-19T02:26:23;6.20;1.00
12438;DHT22;6283;51.330;12.374;2023-11-19T02:28:50;6.20;1.00
12438;DHT22;6283;51.330;12.374;2023-11-19T02:31:15;6.30;1.00
12438;DHT22;6283;51.330;12.374;2023-11-19T02:33:41;6.40;1.00
12438;DHT22;6283;51.330;12.374;2023-11-19T02:36:08;6.50;1.00
12438;DHT22;6283;51.330;12.374;2023-11-19T02:38:35;6.40;1.00
12438;DHT22;6283;51.330;12.374;2023-11-19T02:41:06;6.40;1.00
12438;DHT22;6283;51.330;12.374;2023-11-19T02:43:32;6.40;99.90
12438;DHT22;6283;51.330;12.374;2023-11-19T02:46:01;6.30;59.00
12438;DHT22;6283;51.330;12.374;2023-11-19T02:48:26;6.40;99.90
12438;DHT22;6283;51.330;12.374;2023-11-19T02:50:52;6.40;99.90
12438;DHT22;6283;51.330;12.374;2023-11-19T02:53:18;6.50;99.90
12438;DHT22;6283;51.330;12.374;2023-11-19T02:55:43;6.20;99.90
12438;DHT22;6283;51.330;12.374;2023-11-19T02:58:14;6.40;99.90
12438;DHT22;6283;51.330;12.374;2023-11-19T03:00:45;6.40;1.00
12438;DHT22;6283;51.330;12.374;2023-11-19T03:03:19;6.50;1.00
12438;DHT22;6283;51.330;12.374;2023-11-19T03:05:48;6.30;1.00
12438;DHT22;6283;51.330;12.374;2023-11-19T03:08:17;6.40;64.00
12438;DHT22;6283;51.330;12.374;2023-11-19T03:10:43;6.40;99.90
12438;DHT22;6283;51.330;12.374;2023-11-19T03:13:12;6.40;1.00
12438;DHT22;6283;51.330;12.374;2023-11-19T03:15:39;6.40;1.00
12438;DHT22;6283;51.330;12.374;2023-11-19T03:18:05;6.40;1.00
12438;DHT22;6283;51.330;12.374;2023-11-19T03:20:30;6.50;99.90
12438;DHT22;6283;51.330;12.374;2023-11-19T03:22:56;6.60;99.90
12438;DHT22;6283;51.330;12.374;2023-11-19T03:25:25;6.40;99.90
12438;DHT22;6283;51.330;12.374;2023-11-19T03:27:52;6.50;1.00
12438;DHT22;6283;51.330;12.374;2023-11-19T03:30:18;6.70;99.90
12438;DHT22;6283;51.330;12.374;2023-11-19T03:32:46;6.40;1.00
12438;DHT22;6283;51.330;12.374;2023-11-19T03:35:12;6.90;1.00
12438;DHT22;6283;51.330;12.374;2023-11-19T03:37:37;6.80;1.00
12438;DHT22;6283;51.330;12.374;2023-11-19T03:40:05;6.50;99.90
12438;DHT22;6283;51.330;12.374;2023-11-19T03:42:31;6.60;1.00
12438;DHT22;6283;51.330;12.374;2023-11-19T03:44:57;6.60;1.00
12438;DHT22;6283;51.330;12.374;2023-11-19T03:47:23;6.60;99.90
12438;DHT22;6283;51.330;12.374;2023-11-19T03:49:51;6.90;1.00
12438;DHT22;6283;51.330;12.374;2023-11-19T03:52:18;6.50;1.00
12438;DHT22;6283;51.330;12.374;2023-11-19T03:54:44;6.80;1.00
12438;DHT22;6283;51.330;12.374;2023-11-19T03:57:11;6.60;1.00
12438;DHT22;6283;51.330;12.374;2023-11-19T03:59:37;6.40;1.00
12438;DHT22;6283;51.330;12.374;2023-11-19T04:02:03;6.50;13.00
12438;DHT22;6283;51.330;12.374;2023-11-19T04:04:29;6.50;62.00
12438;DHT22;6283;51.330;12.374;2023-11-19T04:06:58;6.60;99.90
12438;DHT22;6283;51.330;12.374;2023-11-19T04:09:26;6.50;99.90
12438;DHT22;6283;51.330;12.374;2023-11-19T04:11:51;6.80;99.90
12438;DHT22;6283;51.330;12.374;2023-11-19T04:14:17;6.50;99.90
12438;DHT22;6283;51.330;12.374;2023-11-19T04:16:44;6.80;99.90
12438;DHT22;6283;51.330;12.374;2023-11-19T04:19:10;6.70;99.90
12438;DHT22;6283;51.330;12.374;2023-11-19T04:21:36;6.60;99.90
12438;DHT22;6283;51.330;12.374;2023-11-19T04:24:01;6.80;99.90
12438;DHT22;6283;51.330;12.374;2023-11-19T04:26:27;6.80;99.90
12438;DHT22;6283;51.330;12.374;2023-11-19T04:28:52;6.60;99.90
12438;DHT22;6283;51.330;12.374;2023-11-19T04:31:18;6.90;99.90
12438;DHT22;6283;51.330;12.374;2023-11-19T04:33:44;7.00;99.90
12438;DHT22;6283;51.330;12.374;2023-11-19T04:36:10;6.90;99.90
12438;DHT22;6283;51.330;12.374;2023-11-19T04:38:36;7.10;99.90
12438;DHT22;6283;51.330;12.374;2023-11-19T04:41:04;6.90;99.90
12438;DHT22;6283;51.330;12.374;2023-11-19T04:43:31;7.00;99.90
12438;DHT22;6283;51.330;12.374;2023-11-19T04:45:56;6.90;99.90
12438;DHT22;6283;51.330;12.374;2023-11-19T04:48:23;7.20;99.90
12438;DHT22;6283;51.330;12.374;2023-11-19T04:50:49;7.10;99.90
12438;DHT22;6283;51.330;12.374;2023-11-19T04:53:16;7.20;99.90
12438;DHT22;6283;51.330;12.374;2023-11-19T04:55:42;7.10;99.90
12438;DHT22;6283;51.330;12.374;2023-11-19T04:58:08;7.30;99.90
12438;DHT22;6283;51.330;12.374;2023-11-19T05:00:34;7.20;99.90
12438;DHT22;6283;51.330;12.374;2023-11-19T05:03:00;7.40;99.90
12438;DHT22;6283;51.330;12.374;2023-11-19T05:05:25;7.40;99.90
12438;DHT22;6283;51.330;12.374;2023-11-19T05:07:51;7.10;99.90
12438;DHT22;6283;51.330;12.374;2023-11-19T05:10:16;7.20;99.90
12438;DHT22;6283;51.330;12.374;2023-11-19T05:12:42;7.50;99.90
12438;DHT22;6283;51.330;12.374;2023-11-19T05:15:08;7.20;99.90
12438;DHT22;6283;51.330;12.374;2023-11-19T05:17:34;7.40;99.90
12438;DHT22;6283;51.330;12.374;2023-11-19T05:19:59;7.30;99.90
12438;DHT22;6283;51.330;12.374;2023-11-19T05:22:25;7.30;99.90
12438;DHT22;6283;51.330;12.374;2023-11-19T05:24:51;7.40;99.90
12438;DHT22;6283;51.330;12.374;2023-11-19T05:27:17;7.40;99.90
12438;DHT22;6283;51.330;12.374;2023-11-19T05:29:43;7.40;99.90
12438;DHT22;6283;51.330;12.374;2023-11-19T05:32:09;7.40;99.90
12438;DHT22;6283;51.330;12.374;2023-11-19T05:34:35;7.40;99.90
12438;DHT22;6283;51.330;12.374;2023-11-19T05:37:00;7.40;99.90
12438;DHT22;6283;51.330;12.374;2023-11-19T05:39:27;7.50;99.90
12438;DHT22;6283;51.330;12.374;2023-11-19T05:41:52;7.60;99.90
12438;DHT22;6283;51.330;12.374;2023-11-19T05:44:18;7.70;99.90
12438;DHT22;6283;51.330;12.374;2023-11-19T05:46:44;7.60;99.90
12438;DHT22;6283;51.330;12.374;2023-11-19T05:49:11;7.60;99.90
12438;DHT22;6283;51.330;12.374;2023-11-19T05:51:40;7.60;99.90
12438;DHT22;6283;51.330;12.374;2023-11-19T05:54:10;7.60;99.90
12438;DHT22;6283;51.330;12.374;2023-11-19T05:56:36;7.80;99.90
12438;DHT22;6283;51.330;12.374;2023-11-19T05:59:02;7.60;99.90
12438;DHT22;6283;51.330;12.374;2023-11-19T06:01:39;8.00;99.90
12438;DHT22;6283;51.330;12.374;2023-11-19T06:04:07;7.80;99.90
12438;DHT22;6283;51.330;12.374;2023-11-19T06:06:32;7.90;99.90
12438;DHT22;6283;51.330;12.374;2023-11-19T06:08:58;7.80;99.90
12438;DHT22;6283;51.330;12.374;2023-11-19T06:11:24;8.00;99.90
12438;DHT22;6283;51.330;12.374;2023-11-19T06:13:52;8.00;99.90
12438;DHT22;6283;51.330;12.374;2023-11-19T06:16:18;8.20;99.90
12438;DHT22;6283;51.330;12.374;2023-11-19T06:18:44;8.20;99.90
12438;DHT22;6283;51.330;12.374;2023-11-19T06:21:10;8.20;99.90
12438;DHT22;6283;51.330;12.374;2023-11-19T06:23:35;8.10;99.90
12438;DHT22;6283;51.330;12.374;2023-11-19T06:26:01;8.10;99.90
12438;DHT22;6283;51.330;12.374;2023-11-19T06:28:27;8.20;99.90
12438;DHT22;6283;51.330;12.374;2023-11-19T06:30:52;7.90;99.90
12438;DHT22;6283;51.330;12.374;2023-11-19T06:33:18;8.30;99.90
12438;DHT22;6283;51.330;12.374;2023-11-19T06:35:44;8.20;99.90
12438;DHT22;6283;51.330;12.374;2023-11-19T06:38:10;8.20;99.90
12438;DHT22;6283;51.330;12.374;2023-11-19T06:40:36;8.00;99.90
12438;DHT22;6283;51.330;12.374;2023-11-19T06:43:01;8.30;99.90
12438;DHT22;6283;51.330;12.374;2023-11-19T06:45:29;8.40;99.90
12438;DHT22;6283;51.330;12.374;2023-11-19T06:47:55;8.40;99.90
12438;DHT22;6283;51.330;12.374;2023-11-19T06:50:21;8.20;99.90
12438;DHT22;6283;51.330;12.374;2023-11-19T06:52:46;8.20;99.90
12438;DHT22;6283;51.330;12.374;2023-11-19T06:55:12;8.20;99.90
12438;DHT22;6283;51.330;12.374;2023-11-19T06:57:38;8.10;99.90
12438;DHT22;6283;51.330;12.374;2023-11-19T07:00:05;8.30;99.90
12438;DHT22;6283;51.330;12.374;2023-11-19T07:02:31;8.30;99.90
12438;DHT22;6283;51.330;12.374;2023-11-19T07:04:57;8.30;99.90
12438;DHT22;6283;51.330;12.374;2023-11-19T07:07:23;8.40;99.90
12438;DHT22;6283;51.330;12.374;2023-11-19T07:09:48;8.30;99.90
12438;DHT22;6283;51.330;12.374;2023-11-19T07:12:14;8.40;99.90
12438;DHT22;6283;51.330;12.374;2023-11-19T07:14:40;8.10;99.90
12438;DHT22;6283;51.330;12.374;2023-11-19T07:17:07;8.20;99.90
12438;DHT22;6283;51.330;12.374;2023-11-19T07:19:34;8.50;99.90
12438;DHT22;6283;51.330;12.374;2023-11-19T07:22:01;8.30;99.90
12438;DHT22;6283;51.330;12.374;2023-11-19T07:24:27;8.40;99.90
12438;DHT22;6283;51.330;12.374;2023-11-19T07:26:54;8.50;99.90
12438;DHT22;6283;51.330;12.374;2023-11-19T07:29:19;8.70;99.90
12438;DHT22;6283;51.330;12.374;2023-11-19T07:31:48;8.60;99.90
12438;DHT22;6283;51.330;12.374;2023-11-19T07:34:13;8.60;99.90
12438;DHT22;6283;51.330;12.374;2023-11-19T07:36:39;8.70;99.90
12438;DHT22;6283;51.330;12.374;2023-11-19T07:39:05;8.80;99.90
12438;DHT22;6283;51.330;12.374;2023-11-19T07:41:34;8.60;99.90
12438;DHT22;6283;51.330;12.374;2023-11-19T07:44:00;8.80;99.90
12438;DHT22;6283;51.330;12.374;2023-11-19T07:46:26;8.80;99.90
12438;DHT22;6283;51.330;12.374;2023-11-19T07:48:52;9.00;99.90
12438;DHT22;6283;51.330;12.374;2023-11-19T07:51:18;9.20;99.90
12438;DHT22;6283;51.330;12.374;2023-11-19T07:53:44;8.90;99.90
12438;DHT22;6283;51.330;12.374;2023-11-19T07:56:10;8.90;99.90
12438;DHT22;6283;51.330;12.374;2023-11-19T07:58:36;9.20;99.90
12438;DHT22;6283;51.330;12.374;2023-11-19T08:01:02;8.90;99.90
12438;DHT22;6283;51.330;12.374;2023-11-19T08:03:28;9.10;99.90
12438;DHT22;6283;51.330;12.374;2023-11-19T08:05:57;8.90;99.90
12438;DHT22;6283;51.330;12.374;2023-11-19T08:08:23;9.10;99.90
12438;DHT22;6283;51.330;12.374;2023-11-19T08:10:48;9.30;99.90
12438;DHT22;6283;51.330;12.374;2023-11-19T08:13:17;9.40;99.90
12438;DHT22;6283;51.330;12.374;2023-11-19T08:15:43;9.20;99.90
12438;DHT22;6283;51.330;12.374;2023-11-19T08:18:08;9.50;99.90
12438;DHT22;6283;51.330;12.374;2023-11-19T08:20:34;9.50;99.90
12438;DHT22;6283;51.330;12.374;2023-11-19T08:23:01;9.40;99.90
12438;DHT22;6283;51.330;12.374;2023-11-19T08:25:28;9.20;99.90
12438;DHT22;6283;51.330;12.374;2023-11-19T08:27:54;9.60;99.90
12438;DHT22;6283;51.330;12.374;2023-11-19T08:30:20;9.50;99.90
12438;DHT22;6283;51.330;12.374;2023-11-19T08:32:45;9.60;99.90
12438;DHT22;6283;51.330;12.374;2023-11-19T08:35:11;9.60;99.90
12438;DHT22;6283;51.330;12.374;2023-11-19T08:37:37;9.70;99.90
12438;DHT22;6283;51.330;12.374;2023-11-19T08:40:04;9.70;99.90
12438;DHT22;6283;51.330;12.374;2023-11-19T08:42:30;9.80;99.90
12438;DHT22;6283;51.330;12.374;2023-11-19T08:44:56;9.70;99.90
12438;DHT22;6283;51.330;12.374;2023-11-19T08:47:22;9.80;99.90
12438;DHT22;6283;51.330;12.374;2023-11-19T08:49:51;9.80;99.90
12438;DHT22;6283;51.330;12.374;2023-11-19T08:52:18;9.80;99.90
12438;DHT22;6283;51.330;12.374;2023-11-19T08:54:43;10.00;99.90
12438;DHT22;6283;51.330;12.374;2023-11-19T08:57:09;9.90;99.90
12438;DHT22;6283;51.330;12.374;2023-11-19T08:59:35;10.10;99.90
12438;DHT22;6283;51.330;12.374;2023-11-19T09:02:03;10.30;99.90
12438;DHT22;6283;51.330;12.374;2023-11-19T09:04:29;10.20;99.90
12438;DHT22;6283;51.330;12.374;2023-11-19T09:06:57;10.20;99.90
12438;DHT22;6283;51.330;12.374;2023-11-19T09:09:22;10.60;99.90
12438;DHT22;6283;51.330;12.374;2023-11-19T09:11:48;10.40;99.90
12438;DHT22;6283;51.330;12.374;2023-11-19T09:14:13;10.50;99.90
12438;DHT22;6283;51.330;12.374;2023-11-19T09:16:39;10.50;99.90
12438;DHT22;6283;51.330;12.374;2023-11-19T09:19:05;10.40;99.90
12438;DHT22;6283;51.330;12.374;2023-11-19T09:21:30;10.70;99.90
12438;DHT22;6283;51.330;12.374;2023-11-19T09:23:56;10.80;99.90
12438;DHT22;6283;51.330;12.374;2023-11-19T09:26:22;10.80;99.90
12438;DHT22;6283;51.330;12.374;2023-11-19T09:28:48;10.90;30.40
12438;DHT22;6283;51.330;12.374;2023-11-19T09:31:18;11.00;1.00
12438;DHT22;6283;51.330;12.374;2023-11-19T09:33:44;11.00;34.80
12438;DHT22;6283;51.330;12.374;2023-11-19T09:36:12;11.10;1.00
12438;DHT22;6283;51.330;12.374;2023-11-19T09:38:39;11.10;1.00
12438;DHT22;6283;51.330;12.374;2023-11-19T09:41:06;11.30;1.00
12438;DHT22;6283;51.330;12.374;2023-11-19T09:43:35;11.50;1.00
12438;DHT22;6283;51.330;12.374;2023-11-19T09:46:09;11.20;1.00
12438;DHT22;6283;51.330;12.374;2023-11-19T09:48:38;11.40;1.00
12438;DHT22;6283;51.330;12.374;2023-11-19T09:51:07;11.50;1.00
12438;DHT22;6283;51.330;12.374;2023-11-19T09:53:34;11.50;1.00
12438;DHT22;6283;51.330;12.374;2023-11-19T09:56:00;11.50;1.00
12438;DHT22;6283;51.330;12.374;2023-11-19T09:58:29;11.70;1.00
12438;DHT22;6283;51.330;12.374;2023-11-19T10:00:55;11.70;1.00
12438;DHT22;6283;51.330;12.374;2023-11-19T10:03:23;11.40;1.00
12438;DHT22;6283;51.330;12.374;2023-11-19T10:05:49;11.60;1.00
12438;DHT22;6283;51.330;12.374;2023-11-19T10:08:14;11.70;1.00
12438;DHT22;6283;51.330;12.374;2023-11-19T10:10:41;11.70;1.00
12438;DHT22;6283;51.330;12.374;2023-11-19T10:13:07;11.80;1.00
12438;DHT22;6283;51.330;12.374;2023-11-19T10:15:36;11.80;1.00
12438;DHT22;6283;51.330;12.374;2023-11-19T10:18:02;11.70;1.00
12438;DHT22;6283;51.330;12.374;2023-11-19T10:20:38;11.60;1.00
12438;DHT22;6283;51.330;12.374;2023-11-19T10:23:05;11.60;1.00
12438;DHT22;6283;51.330;12.374;2023-11-19T10:25:32;11.80;1.00
12438;DHT22;6283;51.330;12.374;2023-11-19T10:27:59;11.80;1.00
12438;DHT22;6283;51.330;12.374;2023-11-19T10:30:26;11.80;1.00
12438;DHT22;6283;51.330;12.374;2023-11-19T10:33:10;12.00;1.00
12438;DHT22;6283;51.330;12.374;2023-11-19T10:35:51;11.90;1.00
12438;DHT22;6283;51.330;12.374;2023-11-19T10:38:20;12.00;1.00
12438;DHT22;6283;51.330;12.374;2023-11-19T10:40:47;11.90;99.90
12438;DHT22;6283;51.330;12.374;2023-11-19T10:43:13;12.00;99.90
12438;DHT22;6283;51.330;12.374;2023-11-19T10:45:39;12.10;99.90
12438;DHT22;6283;51.330;12.374;2023-11-19T10:48:06;11.90;99.90
12438;DHT22;6283;51.330;12.374;2023-11-19T10:50:36;12.00;51.60
12438;DHT22;6283;51.330;12.374;2023-11-19T10:53:03;12.30;1.00
12438;DHT22;6283;51.330;12.374;2023-11-19T10:55:34;12.10;1.00
12438;DHT22;6283;51.330;12.374;2023-11-19T10:58:08;12.20;99.90
12438;DHT22;6283;51.330;12.374;2023-11-19T11:00:51;12.60;1.00
12438;DHT22;6283;51.330;12.374;2023-11-19T11:03:19;12.50;1.00
12438;DHT22;6283;51.330;12.374;2023-11-19T11:05:49;12.60;1.00
12438;DHT22;6283;51.330;12.374;2023-11-19T11:08:16;13.10;1.00
12438;DHT22;6283;51.330;12.374;2023-11-19T11:10:54;13.20;1.00
12438;DHT22;6283;51.330;12.374;2023-11-19T11:13:22;13.40;99.90
12438;DHT22;6283;51.330;12.374;2023-11-19T11:15:49;13.60;99.90
12438;DHT22;6283;51.330;12.374;2023-11-19T11:18:16;13.60;99.90
12438;DHT22;6283;51.330;12.374;2023-11-19T11:20:44;13.80;99.90
12438;DHT22;6283;51.330;12.374;2023-11-19T11:29:05;14.60;13.80
12438;DHT22;6283;51.330;12.374;2023-11-19T11:34:31;14.20;3.50
12438;DHT22;6283;51.330;12.374;2023-11-19T11:39:49;14.50;1.00
12438;DHT22;6283;51.330;12.374;2023-11-19T11:45:03;14.80;1.00
12438;DHT22;6283;51.330;12.374;2023-11-19T11:55:35;15.30;1.00
12438;DHT22;6283;51.330;12.374;2023-11-19T11:58:05;15.40;1.00
12438;DHT22;6283;51.330;12.374;2023-11-19T12:00:32;15.50;1.00
12438;DHT22;6283;51.330;12.374;2023-11-19T12:03:02;15.50;1.00
12438;DHT22;6283;51.330;12.374;2023-11-19T12:05:30;15.60;1.00
12438;DHT22;6283;51.330;12.374;2023-11-19T12:07:59;15.60;1.00
12438;DHT22;6283;51.330;12.374;2023-11-19T12:10:29;15.80;1.00
12438;DHT22;6283;51.330;12.374;2023-11-19T12:13:00;15.90;1.00
12438;DHT22;6283;51.330;12.374;2023-11-19T12:15:26;15.80;1.00
12438;DHT22;6283;51.330;12.374;2023-11-19T12:17:53;15.80;1.00
12438;DHT22;6283;51.330;12.374;2023-11-19T12:20:24;15.80;1.00
12438;DHT22;6283;51.330;12.374;2023-11-19T12:22:51;15.80;1.00
12438;DHT22;6283;51.330;12.374;2023-11-19T12:25:17;15.80;1.00
12438;DHT22;6283;51.330;12.374;2023-11-19T12:27:50;15.70;1.00
12438;DHT22;6283;51.330;12.374;2023-11-19T12:30:25;15.70;1.00
12438;DHT22;6283;51.330;12.374;2023-11-19T12:32:53;15.70;1.00
12438;DHT22;6283;51.330;12.374;2023-11-19T12:35:19;15.70;1.00
12438;DHT22;6283;51.330;12.374;2023-11-19T12:37:45;15.70;1.00
12438;DHT22;6283;51.330;12.374;2023-11-19T12:42:40;15.90;1.00
12438;DHT22;6283;51.330;12.374;2023-11-19T12:45:06;15.70;1.00
12438;DHT22;6283;51.330;12.374;2023-11-19T12:47:33;15.50;1.00
12438;DHT22;6283;51.330;12.374;2023-11-19T12:49:59;15.30;1.00
12438;DHT22;6283;51.330;12.374;2023-11-19T12:52:25;15.10;1.00
12438;DHT22;6283;51.330;12.374;2023-11-19T12:54:51;14.90;1.00
12438;DHT22;6283;51.330;12.374;2023-11-19T12:57:17;15.00;1.00
12438;DHT22;6283;51.330;12.374;2023-11-19T12:59:55;15.00;1.00
12438;DHT22;6283;51.330;12.374;2023-11-19T13:02:22;14.90;1.00
12438;DHT22;6283;51.330;12.374;2023-11-19T13:04:48;14.60;1.00
12438;DHT22;6283;51.330;12.374;2023-11-19T13:07:20;14.60;1.00
12438;DHT22;6283;51.330;12.374;2023-11-19T13:09:46;14.50;1.00
12438;DHT22;6283;51.330;12.374;2023-11-19T13:12:13;14.50;1.00
12438;DHT22;6283;51.330;12.374;2023-11-19T13:14:39;14.60;1.00
12438;DHT22;6283;51.330;12.374;2023-11-19T13:17:07;14.50;1.00
12438;DHT22;6283;51.330;12.374;2023-11-19T13:19:34;14.50;1.00
12438;DHT22;6283;51.330;12.374;2023-11-19T13:22:00;14.50;1.00
12438;DHT22;6283;51.330;12.374;2023-11-19T13:24:25;14.60;1.00
12438;DHT22;6283;51.330;12.374;2023-11-19T13:26:51;14.80;1.00
12438;DHT22;6283;51.330;12.374;2023-11-19T13:29:16;14.70;1.00
12438;DHT22;6283;51.330;12.374;2023-11-19T13:31:42;14.60;1.00
12438;DHT22;6283;51.330;12.374;2023-11-19T13:34:08;14.80;1.00
12438;DHT22;6283;51.330;12.374;2023-11-19T13:36:34;14.50;1.00
12438;DHT22;6283;51.330;12.374;2023-11-19T13:39:00;14.50;1.00
12438;DHT22;6283;51.330;12.374;2023-11-19T13:41:26;14.50;1.00
12438;DHT22;6283;51.330;12.374;2023-11-19T13:43:52;14.40;1.00
12438;DHT22;6283;51.330;12.374;2023-11-19T13:46:18;14.40;1.00
12438;DHT22;6283;51.330;12.374;2023-11-19T13:48:43;14.20;1.00
12438;DHT22;6283;51.330;12.374;2023-11-19T13:51:09;14.20;1.00
12438;DHT22;6283;51.330;12.374;2023-11-19T13:53:35;14.10;1.00
12438;DHT22;6283;51.330;12.374;2023-11-19T13:56:01;14.10;1.00
12438;DHT22;6283;51.330;12.374;2023-11-19T13:58:26;14.10;1.00
12438;DHT22;6283;51.330;12.374;2023-11-19T14:00:52;14.20;1.00
12438;DHT22;6283;51.330;12.374;2023-11-19T14:03:18;13.90;1.00
12438;DHT22;6283;51.330;12.374;2023-11-19T14:05:43;14.00;1.00
12438;DHT22;6283;51.330;12.374;2023-11-19T14:08:09;14.00;1.00
12438;DHT22;6283;51.330;12.374;2023-11-19T14:10:40;13.90;1.00
12438;DHT22;6283;51.330;12.374;2023-11-19T14:13:07;14.00;1.00
12438;DHT22;6283;51.330;12.374;2023-11-19T14:15:32;14.10;1.00
12438;DHT22;6283;51.330;12.374;2023-11-19T14:17:58;14.10;1.00
12438;DHT22;6283;51.330;12.374;2023-11-19T14:20:24;14.00;1.00
12438;DHT22;6283;51.330;12.374;2023-11-19T14:22:51;13.90;1.00
12438;DHT22;6283;51.330;12.374;2023-11-19T14:25:18;13.90;1.00
12438;DHT22;6283;51.330;12.374;2023-11-19T14:27:44;14.00;1.00
12438;DHT22;6283;51.330;12.374;2023-11-19T14:30:12;13.80;1.00
12438;DHT22;6283;51.330;12.374;2023-11-19T14:32:42;14.00;1.00
12438;DHT22;6283;51.330;12.374;2023-11-19T14:35:10;13.80;1.00
12438;DHT22;6283;51.330;12.374;2023-11-19T14:37:36;13.90;1.00
12438;DHT22;6283;51.330;12.374;2023-11-19T14:40:02;13.70;1.00
12438;DHT22;6283;51.330;12.374;2023-11-19T14:42:31;13.80;1.00
12438;DHT22;6283;51.330;12.374;2023-11-19T14:44:57;13.90;1.00
12438;DHT22;6283;51.330;12.374;2023-11-19T14:47:23;13.80;1.00
12438;DHT22;6283;51.330;12.374;2023-11-19T14:49:49;13.50;1.00
12438;DHT22;6283;51.330;12.374;2023-11-19T14:52:15;13.80;1.00
12438;DHT22;6283;51.330;12.374;2023-11-19T14:54:41;13.80;1.00
12438;DHT22;6283;51.330;12.374;2023-11-19T14:57:07;13.70;1.00
12438;DHT22;6283;51.330;12.374;2023-11-19T14:59:34;13.60;1.00
12438;DHT22;6283;51.330;12.374;2023-11-19T15:02:00;13.60;1.00
12438;DHT22;6283;51.330;12.374;2023-11-19T15:04:26;13.50;1.00
12438;DHT22;6283;51.330;12.374;2023-11-19T15:06:52;13.40;1.00
12438;DHT22;6283;51.330;12.374;2023-11-19T15:09:18;13.40;1.00
12438;DHT22;6283;51.330;12.374;2023-11-19T15:11:46;13.40;1.00
12438;DHT22;6283;51.330;12.374;2023-11-19T15:14:15;13.40;1.00
12438;DHT22;6283;51.330;12.374;2023-11-19T15:16:45;13.20;1.00
12438;DHT22;6283;51.330;12.374;2023-11-19T15:19:11;13.40;1.00
12438;DHT22;6283;51.330;12.374;2023-11-19T15:21:38;13.40;1.00
12438;DHT22;6283;51.330;12.374;2023-11-19T15:24:04;13.30;1.00
12438;DHT22;6283;51.330;12.374;2023-11-19T15:26:36;13.10;1.00
12438;DHT22;6283;51.330;12.374;2023-11-19T15:29:05;13.20;1.00
12438;DHT22;6283;51.330;12.374;2023-11-19T15:31:31;13.20;1.00
12438;DHT22;6283;51.330;12.374;2023-11-19T15:33:57;13.20;1.00
12438;DHT22;6283;51.330;12.374;2023-11-19T15:36:22;13.20;1.00
12438;DHT22;6283;51.330;12.374;2023-11-19T15:38:48;13.00;1.00
12438;DHT22;6283;51.330;12.374;2023-11-19T15:41:14;13.10;1.00
12438;DHT22;6283;51.330;12.374;2023-11-19T15:43:39;13.10;1.00
12438;DHT22;6283;51.330;12.374;2023-11-19T15:46:09;13.10;1.00
12438;DHT22;6283;51.330;12.374;2023-11-19T15:48:35;13.00;1.00
12438;DHT22;6283;51.330;12.374;2023-11-19T15:51:00;12.90;1.00
12438;DHT22;6283;51.330;12.374;2023-11-19T15:53:27;12.90;1.00
12438;DHT22;6283;51.330;12.374;2023-11-19T15:55:53;12.70;1.00
12438;DHT22;6283;51.330;12.374;2023-11-19T15:58:22;12.90;1.00
12438;DHT22;6283;51.330;12.374;2023-11-19T16:00:47;12.80;1.00
12438;DHT22;6283;51.330;12.374;2023-11-19T16:03:13;12.80;1.00
12438;DHT22;6283;51.330;12.374;2023-11-19T16:05:39;13.00;1.00
12438;DHT22;6283;51.330;12.374;2023-11-19T16:08:05;13.00;1.00
12438;DHT22;6283;51.330;12.374;2023-11-19T16:10:31;12.90;1.00